sensor_id;sensor_type;location;lat;lon;timestamp;P1;durP1;ratioP1;P2;durP2;ratioP2
60478;SDS011;46321;48.398;11.754;2023-07-20T00:02:21;5.35;;;3.20;;
60478;SDS011;46321;48.398;11.754;2023-07-20T00:04:46;5.38;;;3.22;;
60478;SDS011;46321;48.398;11.754;2023-07-20T00:07:11;3.97;;;3.00;;
60478;SDS011;46321;48.398;11.754;2023-07-20T00:09:37;5.28;;;3.30;;
60478;SDS011;46321;48.398;11.754;2023-07-20T00:12:02;7.60;;;3.20;;
60478;SDS011;46321;48.398;11.754;2023-07-20T00:14:27;7.03;;;3.33;;
60478;SDS011;46321;48.398;11.754;2023-07-20T00:16:55;3.88;;;3.40;;
60478;SDS011;46321;48.398;11.754;2023-07-20T00:19:24;5.30;;;3.10;;
60478;SDS011;46321;48.398;11.754;2023-07-20T00:21:50;5.25;;;3.10;;
60478;SDS011;46321;48.398;11.754;2023-07-20T00:24:16;4.50;;;2.83;;
60478;SDS011;46321;48.398;11.754;2023-07-20T00:26:42;4.10;;;3.15;;
60478;SDS011;46321;48.398;11.754;2023-07-20T00:29:07;7.18;;;3.28;;
60478;SDS011;46321;48.398;11.754;2023-07-20T00:31:32;5.13;;;3.30;;
60478;SDS011;46321;48.398;11.754;2023-07-20T00:34:00;5.25;;;2.95;;
60478;SDS011;46321;48.398;11.754;2023-07-20T00:36:25;4.18;;;3.10;;
60478;SDS011;46321;48.398;11.754;2023-07-20T00:38:50;5.55;;;2.90;;
60478;SDS011;46321;48.398;11.754;2023-07-20T00:41:16;5.00;;;3.00;;
60478;SDS011;46321;48.398;11.754;2023-07-20T00:43:41;3.90;;;2.70;;
60478;SDS011;46321;48.398;11.754;2023-07-20T00:46:07;4.80;;;2.90;;
60478;SDS011;46321;48.398;11.754;2023-07-20T00:48:33;8.95;;;3.70;;
60478;SDS011;46321;48.398;11.754;2023-07-20T00:50:59;4.82;;;3.08;;
60478;SDS011;46321;48.398;11.754;2023-07-20T00:53:26;8.13;;;3.00;;
60478;SDS011;46321;48.398;11.754;2023-07-20T00:55:52;6.38;;;3.10;;
60478;SDS011;46321;48.398;11.754;2023-07-20T00:58:17;6.03;;;2.97;;
60478;SDS011;46321;48.398;11.754;2023-07-20T01:00:43;7.15;;;3.22;;
60478;SDS011;46321;48.398;11.754;2023-07-20T01:03:08;7.45;;;2.85;;
60478;SDS011;46321;48.398;11.754;2023-07-20T01:05:57;4.88;;;2.42;;
60478;SDS011;46321;48.398;11.754;2023-07-20T01:08:40;4.38;;;2.90;;
60478;SDS011;46321;48.398;11.754;2023-07-20T01:11:33;4.35;;;3.00;;
60478;SDS011;46321;48.398;11.754;2023-07-20T01:14:01;4.88;;;2.85;;
60478;SDS011;46321;48.398;11.754;2023-07-20T01:16:27;6.55;;;3.38;;
60478;SDS011;46321;48.398;11.754;2023-07-20T01:18:53;3.45;;;2.65;;
60478;SDS011;46321;48.398;11.754;2023-07-20T01:21:21;5.43;;;2.72;;
60478;SDS011;46321;48.398;11.754;2023-07-20T01:29:35;3.10;;;2.50;;
60478;SDS011;46321;48.398;11.754;2023-07-20T01:32:18;6.38;;;2.97;;
60478;SDS011;46321;48.398;11.754;2023-07-20T01:34:49;6.15;;;3.28;;
60478;SDS011;46321;48.398;11.754;2023-07-20T01:37:17;5.25;;;2.88;;
60478;SDS011;46321;48.398;11.754;2023-07-20T01:39:45;5.28;;;2.92;;
60478;SDS011;46321;48.398;11.754;2023-07-20T01:42:11;3.58;;;2.67;;
60478;SDS011;46321;48.398;11.754;2023-07-20T01:44:37;7.10;;;3.33;;
60478;SDS011;46321;48.398;11.754;2023-07-20T01:47:03;4.85;;;3.28;;
60478;SDS011;46321;48.398;11.754;2023-07-20T01:49:29;3.72;;;2.90;;
60478;SDS011;46321;48.398;11.754;2023-07-20T01:51:54;4.28;;;2.80;;
60478;SDS011;46321;48.398;11.754;2023-07-20T01:54:19;7.68;;;2.72;;
60478;SDS011;46321;48.398;11.754;2023-07-20T01:56:46;4.55;;;3.03;;
60478;SDS011;46321;48.398;11.754;2023-07-20T01:59:11;4.68;;;3.05;;
60478;SDS011;46321;48.398;11.754;2023-07-20T02:01:36;5.03;;;3.13;;
60478;SDS011;46321;48.398;11.754;2023-07-20T02:04:02;3.55;;;2.97;;
60478;SDS011;46321;48.398;11.754;2023-07-20T02:06:27;5.00;;;3.10;;
60478;SDS011;46321;48.398;11.754;2023-07-20T02:08:52;6.78;;;3.05;;
60478;SDS011;46321;48.398;11.754;2023-07-20T02:11:18;4.07;;;2.97;;
60478;SDS011;46321;48.398;11.754;2023-07-20T02:13:43;8.33;;;3.27;;
60478;SDS011;46321;48.398;11.754;2023-07-20T02:16:08;5.07;;;3.23;;
60478;SDS011;46321;48.398;11.754;2023-07-20T02:18:34;5.97;;;3.00;;
60478;SDS011;46321;48.398;11.754;2023-07-20T02:21:01;6.05;;;3.08;;
60478;SDS011;46321;48.398;11.754;2023-07-20T02:23:26;3.70;;;2.95;;
60478;SDS011;46321;48.398;11.754;2023-07-20T02:25:51;6.63;;;2.90;;
60478;SDS011;46321;48.398;11.754;2023-07-20T02:28:17;4.93;;;2.60;;
60478;SDS011;46321;48.398;11.754;2023-07-20T02:30:42;4.00;;;2.90;;
60478;SDS011;46321;48.398;11.754;2023-07-20T02:33:08;4.93;;;3.17;;
60478;SDS011;46321;48.398;11.754;2023-07-20T02:35:33;4.75;;;3.15;;
60478;SDS011;46321;48.398;11.754;2023-07-20T02:37:58;5.03;;;2.58;;
60478;SDS011;46321;48.398;11.754;2023-07-20T02:40:24;5.13;;;2.75;;
60478;SDS011;46321;48.398;11.754;2023-07-20T02:42:49;6.88;;;2.60;;
60478;SDS011;46321;48.398;11.754;2023-07-20T02:45:15;5.60;;;2.38;;
60478;SDS011;46321;48.398;11.754;2023-07-20T02:47:40;4.47;;;2.47;;
60478;SDS011;46321;48.398;11.754;2023-07-20T02:50:06;3.50;;;2.47;;
60478;SDS011;46321;48.398;11.754;2023-07-20T02:52:32;3.55;;;2.00;;
60478;SDS011;46321;48.398;11.754;2023-07-20T02:54:58;3.03;;;2.15;;
60478;SDS011;46321;48.398;11.754;2023-07-20T02:57:23;4.05;;;2.35;;
60478;SDS011;46321;48.398;11.754;2023-07-20T02:59:49;4.65;;;2.20;;
60478;SDS011;46321;48.398;11.754;2023-07-20T03:02:14;3.58;;;2.22;;
60478;SDS011;46321;48.398;11.754;2023-07-20T03:04:40;4.60;;;2.03;;
60478;SDS011;46321;48.398;11.754;2023-07-20T03:07:05;2.15;;;1.90;;
60478;SDS011;46321;48.398;11.754;2023-07-20T03:09:31;5.63;;;2.20;;
60478;SDS011;46321;48.398;11.754;2023-07-20T03:11:57;2.65;;;2.00;;
60478;SDS011;46321;48.398;11.754;2023-07-20T03:14:22;4.88;;;2.08;;
60478;SDS011;46321;48.398;11.754;2023-07-20T03:16:48;6.32;;;2.58;;
60478;SDS011;46321;48.398;11.754;2023-07-20T03:19:14;4.70;;;1.90;;
60478;SDS011;46321;48.398;11.754;2023-07-20T03:21:39;4.50;;;1.92;;
60478;SDS011;46321;48.398;11.754;2023-07-20T03:24:06;3.10;;;1.85;;
60478;SDS011;46321;48.398;11.754;2023-07-20T03:26:33;2.53;;;1.60;;
60478;SDS011;46321;48.398;11.754;2023-07-20T03:28:58;3.67;;;1.95;;
60478;SDS011;46321;48.398;11.754;2023-07-20T03:31:23;3.47;;;1.60;;
60478;SDS011;46321;48.398;11.754;2023-07-20T03:33:48;4.43;;;1.70;;
60478;SDS011;46321;48.398;11.754;2023-07-20T03:36:14;4.37;;;1.73;;
60478;SDS011;46321;48.398;11.754;2023-07-20T03:38:39;4.45;;;1.70;;
60478;SDS011;46321;48.398;11.754;2023-07-20T03:41:04;3.83;;;1.60;;
60478;SDS011;46321;48.398;11.754;2023-07-20T03:43:30;3.92;;;1.65;;
60478;SDS011;46321;48.398;11.754;2023-07-20T03:45:55;3.03;;;1.83;;
60478;SDS011;46321;48.398;11.754;2023-07-20T03:48:22;2.65;;;1.73;;
60478;SDS011;46321;48.398;11.754;2023-07-20T03:50:48;3.67;;;2.00;;
60478;SDS011;46321;48.398;11.754;2023-07-20T03:53:16;2.38;;;1.42;;
60478;SDS011;46321;48.398;11.754;2023-07-20T03:55:44;4.35;;;2.00;;
60478;SDS011;46321;48.398;11.754;2023-07-20T03:58:11;4.50;;;1.95;;
60478;SDS011;46321;48.398;11.754;2023-07-20T04:00:37;4.10;;;1.75;;
60478;SDS011;46321;48.398;11.754;2023-07-20T04:03:02;4.10;;;1.73;;
60478;SDS011;46321;48.398;11.754;2023-07-20T04:05:27;2.13;;;1.38;;
60478;SDS011;46321;48.398;11.754;2023-07-20T04:07:52;2.50;;;1.40;;
60478;SDS011;46321;48.398;11.754;2023-07-20T04:10:18;2.08;;;1.38;;
60478;SDS011;46321;48.398;11.754;2023-07-20T04:12:44;3.47;;;1.70;;
60478;SDS011;46321;48.398;11.754;2023-07-20T04:15:10;2.65;;;1.48;;
60478;SDS011;46321;48.398;11.754;2023-07-20T04:17:35;1.52;;;1.40;;
60478;SDS011;46321;48.398;11.754;2023-07-20T04:20:01;5.93;;;2.20;;
60478;SDS011;46321;48.398;11.754;2023-07-20T04:22:27;3.53;;;1.58;;
60478;SDS011;46321;48.398;11.754;2023-07-20T04:24:53;3.30;;;1.70;;
60478;SDS011;46321;48.398;11.754;2023-07-20T04:27:18;2.53;;;1.63;;
60478;SDS011;46321;48.398;11.754;2023-07-20T04:29:44;6.20;;;1.90;;
60478;SDS011;46321;48.398;11.754;2023-07-20T04:32:09;4.57;;;1.60;;
60478;SDS011;46321;48.398;11.754;2023-07-20T04:34:34;4.20;;;1.80;;
60478;SDS011;46321;48.398;11.754;2023-07-20T04:37:02;3.53;;;1.67;;
60478;SDS011;46321;48.398;11.754;2023-07-20T04:39:28;5.65;;;1.75;;
60478;SDS011;46321;48.398;11.754;2023-07-20T04:41:53;3.23;;;1.97;;
60478;SDS011;46321;48.398;11.754;2023-07-20T04:44:19;2.53;;;1.60;;
60478;SDS011;46321;48.398;11.754;2023-07-20T04:46:44;3.03;;;1.80;;
60478;SDS011;46321;48.398;11.754;2023-07-20T04:49:09;5.68;;;1.58;;
60478;SDS011;46321;48.398;11.754;2023-07-20T04:51:39;2.90;;;1.60;;
60478;SDS011;46321;48.398;11.754;2023-07-20T04:54:04;3.08;;;1.40;;
60478;SDS011;46321;48.398;11.754;2023-07-20T04:56:30;5.15;;;1.65;;
60478;SDS011;46321;48.398;11.754;2023-07-20T04:58:55;2.88;;;1.85;;
60478;SDS011;46321;48.398;11.754;2023-07-20T05:01:21;2.65;;;1.50;;
60478;SDS011;46321;48.398;11.754;2023-07-20T05:03:46;3.92;;;1.60;;
60478;SDS011;46321;48.398;11.754;2023-07-20T05:06:12;3.25;;;1.27;;
60478;SDS011;46321;48.398;11.754;2023-07-20T05:08:37;6.65;;;1.60;;
60478;SDS011;46321;48.398;11.754;2023-07-20T05:11:03;3.88;;;1.70;;
60478;SDS011;46321;48.398;11.754;2023-07-20T05:13:29;5.40;;;1.30;;
60478;SDS011;46321;48.398;11.754;2023-07-20T05:15:54;5.30;;;1.60;;
60478;SDS011;46321;48.398;11.754;2023-07-20T05:18:20;3.25;;;1.67;;
60478;SDS011;46321;48.398;11.754;2023-07-20T05:20:49;4.68;;;1.65;;
60478;SDS011;46321;48.398;11.754;2023-07-20T05:23:16;2.55;;;1.45;;
60478;SDS011;46321;48.398;11.754;2023-07-20T05:25:43;8.48;;;1.50;;
60478;SDS011;46321;48.398;11.754;2023-07-20T05:28:08;2.83;;;1.55;;
60478;SDS011;46321;48.398;11.754;2023-07-20T05:30:33;2.22;;;1.30;;
60478;SDS011;46321;48.398;11.754;2023-07-20T05:32:59;2.22;;;1.73;;
60478;SDS011;46321;48.398;11.754;2023-07-20T05:35:25;7.13;;;1.60;;
60478;SDS011;46321;48.398;11.754;2023-07-20T05:37:51;2.22;;;1.63;;
60478;SDS011;46321;48.398;11.754;2023-07-20T05:40:16;3.10;;;1.58;;
60478;SDS011;46321;48.398;11.754;2023-07-20T05:42:46;2.45;;;1.67;;
60478;SDS011;46321;48.398;11.754;2023-07-20T05:45:12;4.07;;;1.60;;
60478;SDS011;46321;48.398;11.754;2023-07-20T05:47:37;2.20;;;1.35;;
60478;SDS011;46321;48.398;11.754;2023-07-20T05:50:02;3.35;;;1.58;;
60478;SDS011;46321;48.398;11.754;2023-07-20T05:52:28;2.40;;;1.52;;
60478;SDS011;46321;48.398;11.754;2023-07-20T05:54:54;3.35;;;1.60;;
60478;SDS011;46321;48.398;11.754;2023-07-20T05:57:19;2.85;;;1.63;;
60478;SDS011;46321;48.398;11.754;2023-07-20T05:59:44;2.10;;;1.23;;
60478;SDS011;46321;48.398;11.754;2023-07-20T06:02:10;3.45;;;1.50;;
60478;SDS011;46321;48.398;11.754;2023-07-20T06:04:36;2.80;;;1.70;;
60478;SDS011;46321;48.398;11.754;2023-07-20T06:07:01;2.05;;;1.40;;
60478;SDS011;46321;48.398;11.754;2023-07-20T06:09:27;3.85;;;1.50;;
60478;SDS011;46321;48.398;11.754;2023-07-20T06:11:53;3.95;;;1.65;;
60478;SDS011;46321;48.398;11.754;2023-07-20T06:14:18;2.78;;;1.52;;
60478;SDS011;46321;48.398;11.754;2023-07-20T06:16:43;2.83;;;1.70;;
60478;SDS011;46321;48.398;11.754;2023-07-20T06:19:11;4.45;;;1.52;;
60478;SDS011;46321;48.398;11.754;2023-07-20T06:21:39;4.05;;;1.38;;
60478;SDS011;46321;48.398;11.754;2023-07-20T06:24:05;2.40;;;1.60;;
60478;SDS011;46321;48.398;11.754;2023-07-20T06:26:31;4.35;;;1.80;;
60478;SDS011;46321;48.398;11.754;2023-07-20T06:28:57;1.85;;;1.45;;
60478;SDS011;46321;48.398;11.754;2023-07-20T06:31:22;2.40;;;1.60;;
60478;SDS011;46321;48.398;11.754;2023-07-20T06:33:48;2.42;;;1.45;;
60478;SDS011;46321;48.398;11.754;2023-07-20T06:36:13;3.10;;;1.52;;
60478;SDS011;46321;48.398;11.754;2023-07-20T06:38:41;2.17;;;1.48;;
60478;SDS011;46321;48.398;11.754;2023-07-20T06:41:06;3.95;;;1.80;;
60478;SDS011;46321;48.398;11.754;2023-07-20T06:43:31;3.33;;;1.85;;
60478;SDS011;46321;48.398;11.754;2023-07-20T06:45:57;3.28;;;2.08;;
60478;SDS011;46321;48.398;11.754;2023-07-20T06:48:22;3.60;;;2.03;;
60478;SDS011;46321;48.398;11.754;2023-07-20T06:50:47;5.30;;;3.15;;
60478;SDS011;46321;48.398;11.754;2023-07-20T06:53:13;5.03;;;1.73;;
60478;SDS011;46321;48.398;11.754;2023-07-20T06:55:38;2.47;;;1.60;;
60478;SDS011;46321;48.398;11.754;2023-07-20T06:58:04;4.78;;;1.80;;
60478;SDS011;46321;48.398;11.754;2023-07-20T07:00:29;1.65;;;1.35;;
60478;SDS011;46321;48.398;11.754;2023-07-20T07:02:55;2.65;;;1.50;;
60478;SDS011;46321;48.398;11.754;2023-07-20T07:05:20;8.50;;;1.90;;
60478;SDS011;46321;48.398;11.754;2023-07-20T07:07:46;2.05;;;1.60;;
60478;SDS011;46321;48.398;11.754;2023-07-20T07:10:11;3.55;;;1.73;;
60478;SDS011;46321;48.398;11.754;2023-07-20T07:12:37;2.55;;;1.63;;
60478;SDS011;46321;48.398;11.754;2023-07-20T07:15:04;3.22;;;1.63;;
60478;SDS011;46321;48.398;11.754;2023-07-20T07:17:31;3.22;;;1.90;;
60478;SDS011;46321;48.398;11.754;2023-07-20T07:19:57;3.53;;;1.45;;
60478;SDS011;46321;48.398;11.754;2023-07-20T07:22:23;3.25;;;1.60;;
60478;SDS011;46321;48.398;11.754;2023-07-20T07:24:48;3.67;;;1.60;;
60478;SDS011;46321;48.398;11.754;2023-07-20T07:27:13;2.00;;;1.30;;
60478;SDS011;46321;48.398;11.754;2023-07-20T07:29:41;2.70;;;1.60;;
60478;SDS011;46321;48.398;11.754;2023-07-20T07:32:07;6.00;;;2.38;;
60478;SDS011;46321;48.398;11.754;2023-07-20T07:34:32;5.55;;;3.50;;
60478;SDS011;46321;48.398;11.754;2023-07-20T07:36:59;1.98;;;1.40;;
60478;SDS011;46321;48.398;11.754;2023-07-20T07:39:25;3.88;;;1.60;;
60478;SDS011;46321;48.398;11.754;2023-07-20T07:41:50;1.98;;;1.33;;
60478;SDS011;46321;48.398;11.754;2023-07-20T07:44:16;1.77;;;1.23;;
60478;SDS011;46321;48.398;11.754;2023-07-20T07:46:44;3.28;;;1.45;;
60478;SDS011;46321;48.398;11.754;2023-07-20T07:49:09;3.22;;;1.60;;
60478;SDS011;46321;48.398;11.754;2023-07-20T07:51:34;4.63;;;1.52;;
60478;SDS011;46321;48.398;11.754;2023-07-20T07:54:00;3.10;;;1.20;;
60478;SDS011;46321;48.398;11.754;2023-07-20T07:56:25;4.68;;;1.85;;
60478;SDS011;46321;48.398;11.754;2023-07-20T07:58:51;4.28;;;1.58;;
60478;SDS011;46321;48.398;11.754;2023-07-20T08:01:19;1.73;;;1.10;;
60478;SDS011;46321;48.398;11.754;2023-07-20T08:03:45;2.83;;;1.50;;
60478;SDS011;46321;48.398;11.754;2023-07-20T08:06:12;2.78;;;1.40;;
60478;SDS011;46321;48.398;11.754;2023-07-20T08:08:40;2.38;;;1.10;;
60478;SDS011;46321;48.398;11.754;2023-07-20T08:11:08;2.10;;;1.40;;
60478;SDS011;46321;48.398;11.754;2023-07-20T08:13:33;2.10;;;1.20;;
60478;SDS011;46321;48.398;11.754;2023-07-20T08:16:00;2.63;;;1.40;;
60478;SDS011;46321;48.398;11.754;2023-07-20T08:18:27;2.20;;;1.55;;
60478;SDS011;46321;48.398;11.754;2023-07-20T08:20:52;3.33;;;1.40;;
60478;SDS011;46321;48.398;11.754;2023-07-20T08:23:20;1.73;;;1.20;;
60478;SDS011;46321;48.398;11.754;2023-07-20T08:25:46;1.73;;;1.10;;
60478;SDS011;46321;48.398;11.754;2023-07-20T08:28:13;4.18;;;1.23;;
60478;SDS011;46321;48.398;11.754;2023-07-20T08:30:41;2.80;;;1.38;;
60478;SDS011;46321;48.398;11.754;2023-07-20T08:33:09;2.42;;;1.33;;
60478;SDS011;46321;48.398;11.754;2023-07-20T08:35:36;4.10;;;1.60;;
60478;SDS011;46321;48.398;11.754;2023-07-20T08:38:02;1.60;;;1.00;;
60478;SDS011;46321;48.398;11.754;2023-07-20T08:40:29;1.90;;;1.20;;
60478;SDS011;46321;48.398;11.754;2023-07-20T08:43:00;1.92;;;1.02;;
60478;SDS011;46321;48.398;11.754;2023-07-20T08:45:26;2.65;;;1.10;;
60478;SDS011;46321;48.398;11.754;2023-07-20T08:47:58;1.85;;;1.20;;
60478;SDS011;46321;48.398;11.754;2023-07-20T08:50:25;2.42;;;1.25;;
60478;SDS011;46321;48.398;11.754;2023-07-20T08:53:03;4.07;;;1.15;;
60478;SDS011;46321;48.398;11.754;2023-07-20T08:55:29;1.60;;;1.00;;
60478;SDS011;46321;48.398;11.754;2023-07-20T08:58:18;3.17;;;1.30;;
60478;SDS011;46321;48.398;11.754;2023-07-20T09:00:54;2.42;;;1.10;;
60478;SDS011;46321;48.398;11.754;2023-07-20T09:03:25;2.05;;;1.25;;
60478;SDS011;46321;48.398;11.754;2023-07-20T09:06:12;6.37;;;1.47;;
60478;SDS011;46321;48.398;11.754;2023-07-20T09:08:46;5.15;;;1.88;;
60478;SDS011;46321;48.398;11.754;2023-07-20T09:11:12;2.70;;;1.15;;
60478;SDS011;46321;48.398;11.754;2023-07-20T09:18:35;2.20;;;1.20;;
60478;SDS011;46321;48.398;11.754;2023-07-20T09:21:01;2.42;;;1.30;;
60478;SDS011;46321;48.398;11.754;2023-07-20T09:23:34;2.15;;;1.20;;
60478;SDS011;46321;48.398;11.754;2023-07-20T09:26:09;2.78;;;1.10;;
60478;SDS011;46321;48.398;11.754;2023-07-20T09:28:44;1.95;;;1.30;;
60478;SDS011;46321;48.398;11.754;2023-07-20T09:31:23;3.08;;;1.13;;
60478;SDS011;46321;48.398;11.754;2023-07-20T09:33:48;3.65;;;1.42;;
60478;SDS011;46321;48.398;11.754;2023-07-20T09:36:16;2.60;;;1.48;;
60478;SDS011;46321;48.398;11.754;2023-07-20T09:38:42;3.70;;;1.40;;
60478;SDS011;46321;48.398;11.754;2023-07-20T09:41:08;2.33;;;1.30;;
60478;SDS011;46321;48.398;11.754;2023-07-20T09:43:37;3.10;;;1.15;;
60478;SDS011;46321;48.398;11.754;2023-07-20T09:46:04;1.40;;;1.00;;
60478;SDS011;46321;48.398;11.754;2023-07-20T09:48:30;1.73;;;1.38;;
60478;SDS011;46321;48.398;11.754;2023-07-20T09:50:55;2.28;;;1.33;;
60478;SDS011;46321;48.398;11.754;2023-07-20T09:53:21;2.25;;;1.40;;
60478;SDS011;46321;48.398;11.754;2023-07-20T09:55:50;1.92;;;1.10;;
60478;SDS011;46321;48.398;11.754;2023-07-20T09:58:16;3.10;;;1.58;;
60478;SDS011;46321;48.398;11.754;2023-07-20T10:00:42;2.75;;;1.23;;
60478;SDS011;46321;48.398;11.754;2023-07-20T10:03:11;2.53;;;1.27;;
60478;SDS011;46321;48.398;11.754;2023-07-20T10:05:43;2.00;;;1.10;;
60478;SDS011;46321;48.398;11.754;2023-07-20T10:08:11;2.72;;;1.30;;
60478;SDS011;46321;48.398;11.754;2023-07-20T10:10:38;3.70;;;1.42;;
60478;SDS011;46321;48.398;11.754;2023-07-20T10:13:05;1.83;;;1.20;;
60478;SDS011;46321;48.398;11.754;2023-07-20T10:21:22;3.05;;;1.50;;
60478;SDS011;46321;48.398;11.754;2023-07-20T10:23:48;3.85;;;1.05;;
60478;SDS011;46321;48.398;11.754;2023-07-20T10:26:14;4.53;;;1.10;;
60478;SDS011;46321;48.398;11.754;2023-07-20T10:28:40;1.88;;;1.20;;
60478;SDS011;46321;48.398;11.754;2023-07-20T10:31:07;1.67;;;1.33;;
60478;SDS011;46321;48.398;11.754;2023-07-20T10:33:34;1.73;;;1.27;;
60478;SDS011;46321;48.398;11.754;2023-07-20T10:36:01;5.63;;;2.03;;
60478;SDS011;46321;48.398;11.754;2023-07-20T10:41:19;3.50;;;1.30;;
60478;SDS011;46321;48.398;11.754;2023-07-20T10:43:46;1.65;;;1.35;;
60478;SDS011;46321;48.398;11.754;2023-07-20T10:46:13;3.53;;;1.20;;
60478;SDS011;46321;48.398;11.754;2023-07-20T10:51:29;2.17;;;1.33;;
60478;SDS011;46321;48.398;11.754;2023-07-20T10:53:58;1.92;;;1.20;;
60478;SDS011;46321;48.398;11.754;2023-07-20T10:56:27;1.80;;;1.10;;
60478;SDS011;46321;48.398;11.754;2023-07-20T10:58:57;1.40;;;1.10;;
60478;SDS011;46321;48.398;11.754;2023-07-20T11:01:27;4.90;;;1.30;;
60478;SDS011;46321;48.398;11.754;2023-07-20T11:03:56;1.80;;;1.40;;
60478;SDS011;46321;48.398;11.754;2023-07-20T11:08:48;6.10;;;1.40;;
60478;SDS011;46321;48.398;11.754;2023-07-20T11:11:26;2.00;;;1.05;;
60478;SDS011;46321;48.398;11.754;2023-07-20T11:16:20;3.85;;;1.38;;
60478;SDS011;46321;48.398;11.754;2023-07-20T11:19:17;3.30;;;2.35;;
60478;SDS011;46321;48.398;11.754;2023-07-20T11:21:43;3.88;;;2.00;;
60478;SDS011;46321;48.398;11.754;2023-07-20T11:24:10;2.08;;;1.20;;
60478;SDS011;46321;48.398;11.754;2023-07-20T11:26:44;2.53;;;1.20;;
60478;SDS011;46321;48.398;11.754;2023-07-20T11:29:17;3.70;;;1.25;;
60478;SDS011;46321;48.398;11.754;2023-07-20T11:31:48;1.75;;;1.30;;
60478;SDS011;46321;48.398;11.754;2023-07-20T11:34:16;1.95;;;1.50;;
60478;SDS011;46321;48.398;11.754;2023-07-20T11:36:42;4.43;;;1.25;;
60478;SDS011;46321;48.398;11.754;2023-07-20T11:39:10;6.55;;;1.35;;
60478;SDS011;46321;48.398;11.754;2023-07-20T11:41:37;2.08;;;1.20;;
60478;SDS011;46321;48.398;11.754;2023-07-20T11:44:06;2.15;;;1.40;;
60478;SDS011;46321;48.398;11.754;2023-07-20T11:46:32;1.83;;;1.27;;
60478;SDS011;46321;48.398;11.754;2023-07-20T11:48:59;2.78;;;1.30;;
60478;SDS011;46321;48.398;11.754;2023-07-20T11:51:28;5.18;;;1.80;;
60478;SDS011;46321;48.398;11.754;2023-07-20T11:53:54;3.53;;;1.80;;
60478;SDS011;46321;48.398;11.754;2023-07-20T11:56:20;2.92;;;1.73;;
60478;SDS011;46321;48.398;11.754;2023-07-20T11:58:45;2.25;;;1.25;;
60478;SDS011;46321;48.398;11.754;2023-07-20T12:01:14;1.92;;;1.20;;
60478;SDS011;46321;48.398;11.754;2023-07-20T12:03:41;2.15;;;1.30;;
60478;SDS011;46321;48.398;11.754;2023-07-20T12:06:07;4.50;;;1.23;;
60478;SDS011;46321;48.398;11.754;2023-07-20T12:08:33;3.67;;;1.23;;
60478;SDS011;46321;48.398;11.754;2023-07-20T12:10:59;1.83;;;1.40;;
60478;SDS011;46321;48.398;11.754;2023-07-20T12:13:35;2.38;;;1.38;;
60478;SDS011;46321;48.398;11.754;2023-07-20T12:16:06;2.92;;;1.27;;
60478;SDS011;46321;48.398;11.754;2023-07-20T12:18:35;2.42;;;1.42;;
60478;SDS011;46321;48.398;11.754;2023-07-20T12:21:01;2.47;;;1.13;;
60478;SDS011;46321;48.398;11.754;2023-07-20T12:23:27;2.08;;;1.00;;
60478;SDS011;46321;48.398;11.754;2023-07-20T12:26:05;1.77;;;1.10;;
60478;SDS011;46321;48.398;11.754;2023-07-20T12:28:32;2.25;;;1.25;;
60478;SDS011;46321;48.398;11.754;2023-07-20T12:30:57;2.28;;;1.38;;
60478;SDS011;46321;48.398;11.754;2023-07-20T12:33:22;4.13;;;1.50;;
60478;SDS011;46321;48.398;11.754;2023-07-20T12:35:48;1.95;;;1.15;;
60478;SDS011;46321;48.398;11.754;2023-07-20T12:38:15;2.38;;;1.25;;
60478;SDS011;46321;48.398;11.754;2023-07-20T12:40:41;2.40;;;1.40;;
60478;SDS011;46321;48.398;11.754;2023-07-20T12:43:06;3.13;;;1.40;;
60478;SDS011;46321;48.398;11.754;2023-07-20T12:45:32;4.15;;;1.40;;
60478;SDS011;46321;48.398;11.754;2023-07-20T12:47:57;4.00;;;1.20;;
60478;SDS011;46321;48.398;11.754;2023-07-20T12:50:23;2.35;;;1.10;;
60478;SDS011;46321;48.398;11.754;2023-07-20T12:52:48;4.97;;;1.40;;
60478;SDS011;46321;48.398;11.754;2023-07-20T12:55:13;2.83;;;1.25;;
60478;SDS011;46321;48.398;11.754;2023-07-20T12:57:40;2.23;;;1.40;;
60478;SDS011;46321;48.398;11.754;2023-07-20T13:00:06;2.08;;;1.30;;
60478;SDS011;46321;48.398;11.754;2023-07-20T13:02:35;5.88;;;1.23;;
60478;SDS011;46321;48.398;11.754;2023-07-20T13:05:01;2.72;;;1.30;;
60478;SDS011;46321;48.398;11.754;2023-07-20T13:07:36;2.50;;;1.40;;
60478;SDS011;46321;48.398;11.754;2023-07-20T13:10:03;1.70;;;1.45;;
60478;SDS011;46321;48.398;11.754;2023-07-20T13:12:29;6.18;;;1.48;;
60478;SDS011;46321;48.398;11.754;2023-07-20T13:14:56;1.58;;;1.20;;
60478;SDS011;46321;48.398;11.754;2023-07-20T13:17:22;2.10;;;1.33;;
60478;SDS011;46321;48.398;11.754;2023-07-20T13:19:48;1.45;;;1.00;;
60478;SDS011;46321;48.398;11.754;2023-07-20T13:22:14;2.78;;;1.40;;
60478;SDS011;46321;48.398;11.754;2023-07-20T13:24:39;2.00;;;1.25;;
60478;SDS011;46321;48.398;11.754;2023-07-20T13:27:05;1.83;;;1.20;;
60478;SDS011;46321;48.398;11.754;2023-07-20T13:29:31;2.53;;;1.23;;
60478;SDS011;46321;48.398;11.754;2023-07-20T13:31:57;1.85;;;1.30;;
60478;SDS011;46321;48.398;11.754;2023-07-20T13:34:22;2.03;;;1.20;;
60478;SDS011;46321;48.398;11.754;2023-07-20T13:36:48;4.35;;;1.10;;
60478;SDS011;46321;48.398;11.754;2023-07-20T13:39:13;2.00;;;1.10;;
60478;SDS011;46321;48.398;11.754;2023-07-20T13:41:39;4.47;;;1.55;;
60478;SDS011;46321;48.398;11.754;2023-07-20T13:44:04;2.78;;;1.50;;
60478;SDS011;46321;48.398;11.754;2023-07-20T13:46:29;1.83;;;1.40;;
60478;SDS011;46321;48.398;11.754;2023-07-20T13:48:55;2.57;;;1.50;;
60478;SDS011;46321;48.398;11.754;2023-07-20T13:51:20;2.00;;;1.70;;
60478;SDS011;46321;48.398;11.754;2023-07-20T13:53:47;2.70;;;1.60;;
60478;SDS011;46321;48.398;11.754;2023-07-20T13:56:12;6.28;;;1.70;;
60478;SDS011;46321;48.398;11.754;2023-07-20T13:58:38;1.80;;;1.30;;
60478;SDS011;46321;48.398;11.754;2023-07-20T14:01:03;2.75;;;1.20;;
60478;SDS011;46321;48.398;11.754;2023-07-20T14:03:29;2.37;;;1.40;;
60478;SDS011;46321;48.398;11.754;2023-07-20T14:05:54;3.47;;;1.40;;
60478;SDS011;46321;48.398;11.754;2023-07-20T14:08:20;2.77;;;1.20;;
60478;SDS011;46321;48.398;11.754;2023-07-20T14:10:46;1.58;;;1.20;;
60478;SDS011;46321;48.398;11.754;2023-07-20T14:13:11;5.10;;;1.40;;
60478;SDS011;46321;48.398;11.754;2023-07-20T14:15:37;2.28;;;1.40;;
60478;SDS011;46321;48.398;11.754;2023-07-20T14:18:02;3.22;;;1.45;;
60478;SDS011;46321;48.398;11.754;2023-07-20T14:20:27;3.22;;;1.70;;
60478;SDS011;46321;48.398;11.754;2023-07-20T14:22:53;2.93;;;1.90;;
60478;SDS011;46321;48.398;11.754;2023-07-20T14:25:18;2.70;;;1.50;;
60478;SDS011;46321;48.398;11.754;2023-07-20T14:27:43;3.73;;;1.63;;
60478;SDS011;46321;48.398;11.754;2023-07-20T14:30:09;6.40;;;1.48;;
60478;SDS011;46321;48.398;11.754;2023-07-20T14:32:35;3.03;;;1.42;;
60478;SDS011;46321;48.398;11.754;2023-07-20T14:35:00;2.78;;;1.20;;
60478;SDS011;46321;48.398;11.754;2023-07-20T14:37:25;2.13;;;1.10;;
60478;SDS011;46321;48.398;11.754;2023-07-20T14:39:51;1.80;;;1.30;;
60478;SDS011;46321;48.398;11.754;2023-07-20T14:42:16;5.60;;;1.37;;
60478;SDS011;46321;48.398;11.754;2023-07-20T14:44:42;3.20;;;1.10;;
60478;SDS011;46321;48.398;11.754;2023-07-20T14:47:07;1.83;;;1.20;;
60478;SDS011;46321;48.398;11.754;2023-07-20T14:49:32;2.40;;;1.37;;
60478;SDS011;46321;48.398;11.754;2023-07-20T14:51:58;1.83;;;1.33;;
60478;SDS011;46321;48.398;11.754;2023-07-20T14:54:23;2.08;;;1.15;;
60478;SDS011;46321;48.398;11.754;2023-07-20T14:56:49;1.70;;;1.30;;
60478;SDS011;46321;48.398;11.754;2023-07-20T14:59:17;2.05;;;1.30;;